createdAt,value
2017-09-03T00:00:37.989Z,8.23
2017-09-03T00:03:05.776Z,8.10
2017-09-03T00:05:33.573Z,7.13
2017-09-03T00:08:01.369Z,6.10
2017-09-03T00:10:29.184Z,6.17
2017-09-03T00:12:56.960Z,6.53
2017-09-03T00:15:24.794Z,6.53
2017-09-03T00:17:52.632Z,6.13
2017-09-03T00:20:20.433Z,6.23
2017-09-03T00:22:48.340Z,5.67
2017-09-03T00:25:16.172Z,6.57
2017-09-03T00:27:44.007Z,5.70
2017-09-03T00:30:11.929Z,5.20
2017-09-03T00:32:39.776Z,6.27
2017-09-03T00:35:07.621Z,5.50
2017-09-03T00:37:35.527Z,5.40
2017-09-03T00:40:04.213Z,5.53
2017-09-03T00:42:32.044Z,6.03
2017-09-03T00:44:59.907Z,5.30
2017-09-03T00:47:27.749Z,4.60
2017-09-03T00:49:55.593Z,5.63
2017-09-03T00:52:23.404Z,4.67
2017-09-03T00:54:51.280Z,5.80
2017-09-03T00:57:19.103Z,4.70
2017-09-03T00:59:46.972Z,5.27
2017-09-03T01:02:14.813Z,5.00
2017-09-03T01:04:42.717Z,5.60
2017-09-03T01:07:10.618Z,5.70
2017-09-03T01:09:38.397Z,5.10
2017-09-03T01:12:06.286Z,4.63
2017-09-03T01:14:34.145Z,4.77
2017-09-03T01:17:02.040Z,5.53
2017-09-03T01:19:29.909Z,5.87
2017-09-03T01:21:57.759Z,5.13
2017-09-03T01:24:25.545Z,6.00
2017-09-03T01:26:53.350Z,5.30
2017-09-03T01:29:21.108Z,5.30
2017-09-03T01:31:48.901Z,5.83
2017-09-03T01:34:16.811Z,6.03
2017-09-03T01:36:44.699Z,6.67
2017-09-03T01:39:12.521Z,6.10
2017-09-03T01:41:40.293Z,5.70
2017-09-03T01:44:08.122Z,6.53
2017-09-03T01:46:35.985Z,5.83
2017-09-03T01:49:03.755Z,5.80
2017-09-03T01:51:31.849Z,5.20
2017-09-03T01:54:00.457Z,6.13
2017-09-03T01:56:28.273Z,5.70
2017-09-03T01:58:56.068Z,5.80
2017-09-03T02:01:23.868Z,5.50
2017-09-03T02:03:51.720Z,5.70
2017-09-03T02:06:19.498Z,6.00
2017-09-03T02:08:47.420Z,6.13
2017-09-03T02:11:15.213Z,5.43
2017-09-03T02:13:43.033Z,5.50
2017-09-03T02:16:10.819Z,5.33
2017-09-03T02:18:38.687Z,5.90
2017-09-03T02:21:06.505Z,5.30
2017-09-03T02:23:34.384Z,5.67
2017-09-03T02:26:02.176Z,5.70
2017-09-03T02:28:30.083Z,6.20
2017-09-03T02:30:57.879Z,6.83
2017-09-03T02:33:25.716Z,6.10
2017-09-03T02:35:53.543Z,6.40
2017-09-03T02:38:21.347Z,5.43
2017-09-03T02:40:49.178Z,6.90
2017-09-03T02:43:16.951Z,6.80
2017-09-03T02:45:44.733Z,6.27
2017-09-03T02:48:12.547Z,7.10
2017-09-03T02:50:40.380Z,6.33
2017-09-03T02:53:08.275Z,6.83
2017-09-03T02:55:36.154Z,6.40
2017-09-03T02:58:03.965Z,6.53
2017-09-03T03:00:31.825Z,6.00
2017-09-03T03:02:59.580Z,6.10
2017-09-03T03:05:27.398Z,6.30
2017-09-03T03:07:55.222Z,6.20
2017-09-03T03:10:23.112Z,7.63
2017-09-03T03:12:51.001Z,6.60
2017-09-03T03:15:18.788Z,6.27
2017-09-03T03:17:46.665Z,6.50
2017-09-03T03:20:14.478Z,6.60
2017-09-03T03:22:42.245Z,6.80
2017-09-03T03:25:10.017Z,6.97
2017-09-03T03:27:37.809Z,5.93
2017-09-03T03:30:05.636Z,6.40
2017-09-03T03:32:33.412Z,6.77
2017-09-03T03:35:01.185Z,5.87
2017-09-03T03:37:29.024Z,7.93
2017-09-03T03:39:59.868Z,6.20
2017-09-03T03:42:27.703Z,7.00
2017-09-03T03:44:55.513Z,6.80
2017-09-03T03:47:23.371Z,6.43
2017-09-03T03:49:51.224Z,6.20
2017-09-03T03:52:19.047Z,7.90
2017-09-03T03:54:46.833Z,5.73
2017-09-03T03:57:14.630Z,6.70
2017-09-03T03:59:42.436Z,6.80
2017-09-03T04:02:10.249Z,6.10
2017-09-03T04:04:38.008Z,7.10
2017-09-03T04:07:06.059Z,7.27
2017-09-03T04:09:33.864Z,6.80
2017-09-03T04:12:01.663Z,5.97
2017-09-03T04:14:29.456Z,6.93
2017-09-03T04:16:57.321Z,6.37
2017-09-03T04:19:25.236Z,6.67
2017-09-03T04:21:53.073Z,6.50
2017-09-03T04:24:21.641Z,7.60
2017-09-03T04:26:49.468Z,7.10
2017-09-03T04:29:17.276Z,7.20
2017-09-03T04:31:45.132Z,6.40
2017-09-03T04:34:12.900Z,7.40
2017-09-03T04:36:40.657Z,6.67
2017-09-03T04:39:08.541Z,7.20
2017-09-03T04:41:36.397Z,7.30
2017-09-03T04:44:04.184Z,6.97
2017-09-03T04:46:31.991Z,6.37
2017-09-03T04:48:59.758Z,5.83
2017-09-03T04:51:27.534Z,6.83
2017-09-03T04:53:55.384Z,7.47
2017-09-03T04:56:23.161Z,8.30
2017-09-03T04:58:51.063Z,7.03
2017-09-03T05:01:18.889Z,7.10
2017-09-03T05:03:46.701Z,6.10
2017-09-03T05:06:14.569Z,6.07
2017-09-03T05:08:42.393Z,6.70
2017-09-03T05:11:10.165Z,7.10
2017-09-03T05:13:38.066Z,6.67
2017-09-03T05:16:05.986Z,7.43
2017-09-03T05:18:33.796Z,7.77
2017-09-03T05:21:01.566Z,7.50
2017-09-03T05:23:29.438Z,7.57
2017-09-03T05:25:57.384Z,6.73
2017-09-03T05:28:25.243Z,6.63
2017-09-03T05:30:53.085Z,5.93
2017-09-03T05:33:20.894Z,7.20
2017-09-03T05:35:48.726Z,7.33
2017-09-03T05:38:16.574Z,6.80
2017-09-03T05:40:44.376Z,7.20
2017-09-03T05:43:12.197Z,6.33
2017-09-03T05:45:40.007Z,6.70
2017-09-03T05:48:07.773Z,7.27
2017-09-03T05:50:35.612Z,6.67
2017-09-03T05:53:03.487Z,6.70
2017-09-03T05:55:31.313Z,7.03
2017-09-03T05:57:59.163Z,7.87
2017-09-03T06:00:26.948Z,5.57
2017-09-03T06:02:54.763Z,7.97
2017-09-03T06:05:22.607Z,6.23
2017-09-03T06:07:50.445Z,6.47
2017-09-03T06:10:18.267Z,6.70
2017-09-03T06:12:46.072Z,6.93
2017-09-03T06:15:14.191Z,6.23
2017-09-03T06:17:42.001Z,7.50
2017-09-03T06:20:09.813Z,6.90
2017-09-03T06:22:37.704Z,6.63
2017-09-03T06:25:05.506Z,6.63
2017-09-03T06:27:33.388Z,7.00
2017-09-03T06:30:01.284Z,6.97
2017-09-03T06:32:29.152Z,8.10
2017-09-03T06:34:56.955Z,6.83
2017-09-03T06:37:24.767Z,6.80
2017-09-03T06:39:52.703Z,7.27
2017-09-03T06:42:20.512Z,7.57
2017-09-03T06:44:48.400Z,7.30
2017-09-03T06:47:16.194Z,7.80
2017-09-03T06:49:43.995Z,7.03
2017-09-03T06:52:11.814Z,6.50
2017-09-03T06:54:39.628Z,8.30
2017-09-03T06:57:07.437Z,7.13
2017-09-03T06:59:35.241Z,7.37
2017-09-03T07:02:03.042Z,7.37
2017-09-03T07:04:30.898Z,8.10
2017-09-03T07:06:58.685Z,6.68
2017-09-03T07:09:26.540Z,6.13
2017-09-03T07:11:54.334Z,6.80
2017-09-03T07:14:22.106Z,6.80
2017-09-03T07:16:49.949Z,7.00
2017-09-03T07:19:17.783Z,6.93
2017-09-03T07:21:45.574Z,7.07
2017-09-03T07:24:13.465Z,6.70
2017-09-03T07:26:41.267Z,6.87
2017-09-03T07:29:09.110Z,6.53
2017-09-03T07:31:36.915Z,6.20
2017-09-03T07:34:04.808Z,7.47
2017-09-03T07:36:32.610Z,7.20
2017-09-03T07:39:00.396Z,8.20
2017-09-03T07:41:28.196Z,10.10
2017-09-03T07:43:56.025Z,8.00
2017-09-03T07:46:23.812Z,9.13
2017-09-03T07:48:51.665Z,7.83
2017-09-03T07:51:19.482Z,7.77
2017-09-03T07:53:47.334Z,9.30
2017-09-03T07:56:15.201Z,8.10
2017-09-03T07:58:43.012Z,8.57
2017-09-03T08:01:10.837Z,8.47
2017-09-03T08:03:38.650Z,8.20
2017-09-03T08:06:06.588Z,9.27
2017-09-03T08:08:34.369Z,8.17
2017-09-03T08:11:02.168Z,8.93
2017-09-03T08:13:30.085Z,7.80
2017-09-03T08:15:57.882Z,9.20
2017-09-03T08:18:25.693Z,9.30
2017-09-03T08:20:53.548Z,8.17
2017-09-03T08:23:21.394Z,9.07
2017-09-03T08:25:49.333Z,8.27
2017-09-03T08:28:17.168Z,8.80
2017-09-03T08:30:46.831Z,8.83
2017-09-03T08:33:14.731Z,8.30
2017-09-03T08:35:42.557Z,9.00
2017-09-03T08:38:11.117Z,7.23
2017-09-03T08:40:39.040Z,7.60
2017-09-03T08:43:06.904Z,9.17
2017-09-03T08:45:34.752Z,8.10
2017-09-03T08:48:02.632Z,8.60
2017-09-03T08:50:30.496Z,8.00
2017-09-03T08:52:58.309Z,7.60
2017-09-03T08:55:26.164Z,7.60
2017-09-03T08:57:54.133Z,6.80
2017-09-03T09:00:22.676Z,7.67
2017-09-03T09:02:50.484Z,8.33
2017-09-03T09:05:18.285Z,6.50
2017-09-03T09:07:46.881Z,7.47
2017-09-03T09:10:14.801Z,8.10
2017-09-03T09:12:42.710Z,5.97
2017-09-03T09:15:10.481Z,6.37
2017-09-03T09:17:46.923Z,6.73
2017-09-03T09:20:14.983Z,5.63
2017-09-03T09:22:42.842Z,6.30
2017-09-03T09:25:15.211Z,6.80
2017-09-03T09:27:43.972Z,5.70
2017-09-03T09:30:12.180Z,6.77
2017-09-03T09:32:40.044Z,6.83
2017-09-03T09:35:07.820Z,5.63
2017-09-03T09:37:35.667Z,5.70
2017-09-03T09:40:03.523Z,5.80
2017-09-03T09:42:31.392Z,4.47
2017-09-03T09:44:59.188Z,4.63
2017-09-03T09:47:27.040Z,4.90
2017-09-03T09:49:54.930Z,5.03
2017-09-03T09:52:22.772Z,5.53
2017-09-03T09:54:50.643Z,6.10
2017-09-03T09:57:18.530Z,5.00
2017-09-03T09:59:46.410Z,4.30
2017-09-03T10:02:14.226Z,4.13
2017-09-03T10:04:42.016Z,4.83
2017-09-03T10:07:09.799Z,4.03
2017-09-03T10:09:37.562Z,4.00
2017-09-03T10:12:05.438Z,3.63
2017-09-03T10:14:33.277Z,3.30
2017-09-03T10:17:01.178Z,4.17
2017-09-03T10:19:29.128Z,4.03
2017-09-03T10:21:57.959Z,4.20
2017-09-03T10:24:25.815Z,3.10
2017-09-03T10:26:53.678Z,4.10
2017-09-03T10:29:21.570Z,3.23
2017-09-03T10:31:49.507Z,4.00
2017-09-03T10:34:18.333Z,4.53
2017-09-03T10:36:46.197Z,3.37
2017-09-03T10:39:14.084Z,4.67
2017-09-03T10:41:43.911Z,3.93
2017-09-03T10:44:11.828Z,4.03
2017-09-03T10:46:39.673Z,4.60
2017-09-03T10:49:07.542Z,4.97
2017-09-03T10:51:35.348Z,4.10
2017-09-03T10:54:04.109Z,4.17
2017-09-03T10:56:32.113Z,3.93
2017-09-03T10:59:00.009Z,4.50
2017-09-03T11:01:27.791Z,4.30
2017-09-03T11:03:55.691Z,3.97
2017-09-03T11:06:23.497Z,4.60
2017-09-03T11:08:52.020Z,4.20
2017-09-03T11:11:19.827Z,4.20
2017-09-03T11:13:47.719Z,3.87
2017-09-03T11:16:15.637Z,3.90
2017-09-03T11:18:43.441Z,4.10
2017-09-03T11:21:11.252Z,4.13
2017-09-03T11:23:39.148Z,3.47
2017-09-03T11:26:06.930Z,4.10
2017-09-03T11:28:34.725Z,5.27
2017-09-03T11:31:02.658Z,3.63
2017-09-03T11:33:31.637Z,4.07
2017-09-03T11:35:59.442Z,4.47
2017-09-03T11:38:27.301Z,4.93
2017-09-03T11:40:55.157Z,4.83
2017-09-03T11:43:24.911Z,3.90
2017-09-03T11:45:52.900Z,3.77
2017-09-03T11:48:20.761Z,4.10
2017-09-03T11:50:48.602Z,5.00
2017-09-03T11:53:16.394Z,4.43
2017-09-03T11:55:44.194Z,3.83
2017-09-03T11:58:12.031Z,4.15
2017-09-03T12:00:39.850Z,4.70
2017-09-03T12:03:07.725Z,4.90
2017-09-03T12:05:35.522Z,7.27
2017-09-03T12:08:03.291Z,6.25
2017-09-03T12:10:31.076Z,6.30
2017-09-03T12:13:02.909Z,8.40
2017-09-03T12:15:30.704Z,5.40
2017-09-03T12:17:58.496Z,4.67
2017-09-03T12:20:26.282Z,4.50
2017-09-03T12:22:54.149Z,4.63
2017-09-03T12:25:21.926Z,3.67
2017-09-03T12:27:49.802Z,4.13
2017-09-03T12:30:18.825Z,4.53
2017-09-03T12:32:46.638Z,4.20
2017-09-03T12:35:14.473Z,4.57
2017-09-03T12:37:42.285Z,4.60
2017-09-03T12:40:10.092Z,4.40
2017-09-03T12:42:38.706Z,4.70
2017-09-03T12:45:06.606Z,4.20
2017-09-03T12:47:35.430Z,3.57
2017-09-03T12:50:03.256Z,3.70
2017-09-03T12:52:31.870Z,4.10
2017-09-03T12:54:59.786Z,4.70
2017-09-03T12:57:27.609Z,3.57
2017-09-03T12:59:55.377Z,3.87
2017-09-03T13:02:23.285Z,3.23
2017-09-03T13:04:51.041Z,4.53
2017-09-03T13:07:19.651Z,3.87
2017-09-03T13:09:47.491Z,4.00
2017-09-03T13:12:15.368Z,3.30
2017-09-03T13:14:43.280Z,4.40
2017-09-03T13:17:11.122Z,4.03
2017-09-03T13:19:39.299Z,4.10
2017-09-03T13:22:07.224Z,3.70
2017-09-03T13:24:35.063Z,4.20
2017-09-03T13:27:03.100Z,4.20
2017-09-03T13:29:30.917Z,3.47
2017-09-03T13:31:58.754Z,3.70
2017-09-03T13:34:27.078Z,4.07
2017-09-03T13:36:54.989Z,3.60
2017-09-03T13:39:23.046Z,3.77
2017-09-03T13:41:50.903Z,4.43
2017-09-03T13:44:18.780Z,4.03
2017-09-03T13:46:46.611Z,4.10
2017-09-03T13:49:14.438Z,3.60
2017-09-03T13:51:42.679Z,4.40
2017-09-03T13:54:10.552Z,3.53
2017-09-03T13:56:38.445Z,4.20
2017-09-03T13:59:07.124Z,3.60
2017-09-03T14:01:34.986Z,3.90
2017-09-03T14:04:02.849Z,4.00
2017-09-03T14:06:30.613Z,3.37
2017-09-03T14:08:58.469Z,3.72
2017-09-03T14:11:26.290Z,4.00
2017-09-03T14:13:54.098Z,4.15
2017-09-03T14:16:21.884Z,3.80
2017-09-03T14:18:49.694Z,3.80
2017-09-03T14:21:17.627Z,3.83
2017-09-03T14:23:45.552Z,3.90
2017-09-03T14:26:13.484Z,3.70
2017-09-03T14:28:41.290Z,4.60
2017-09-03T14:31:09.158Z,3.50
2017-09-03T14:33:36.971Z,4.03
2017-09-03T14:36:04.860Z,4.07
2017-09-03T14:38:32.701Z,3.80
2017-09-03T14:41:00.492Z,3.73
2017-09-03T14:43:28.281Z,4.27
2017-09-03T14:45:56.124Z,4.80
2017-09-03T14:48:23.986Z,4.50
2017-09-03T14:50:51.810Z,3.92
2017-09-03T14:53:19.669Z,4.37
2017-09-03T14:55:47.627Z,4.32
2017-09-03T14:58:15.480Z,5.00
2017-09-03T15:00:43.293Z,3.83
2017-09-03T15:03:11.168Z,4.70
2017-09-03T15:05:39.026Z,4.35
2017-09-03T15:08:06.952Z,5.00
2017-09-03T15:10:34.823Z,4.50
2017-09-03T15:13:02.784Z,6.30
2017-09-03T15:15:30.652Z,4.70
2017-09-03T15:17:58.472Z,4.17
2017-09-03T15:20:26.275Z,4.40
2017-09-03T15:22:54.247Z,4.60
2017-09-03T15:25:22.052Z,4.87
2017-09-03T15:27:49.984Z,5.00
2017-09-03T15:30:17.817Z,5.00
2017-09-03T15:32:46.397Z,4.60
2017-09-03T15:35:14.239Z,5.20
2017-09-03T15:37:42.047Z,5.60
2017-09-03T15:40:09.863Z,5.50
2017-09-03T15:42:37.724Z,5.50
2017-09-03T15:45:05.684Z,4.90
2017-09-03T15:47:33.590Z,4.93
2017-09-03T15:50:01.427Z,5.57
2017-09-03T15:52:30.063Z,5.43
2017-09-03T15:54:57.961Z,5.73
2017-09-03T15:57:25.824Z,5.60
2017-09-03T15:59:53.781Z,6.17
2017-09-03T16:02:21.681Z,5.47
2017-09-03T16:04:54.859Z,4.53
2017-09-03T16:07:22.799Z,4.60
2017-09-03T16:09:50.608Z,4.77
2017-09-03T16:12:18.467Z,5.23
2017-09-03T16:14:46.340Z,5.33
2017-09-03T16:17:14.163Z,5.10
2017-09-03T16:19:42.136Z,4.50
2017-09-03T16:22:09.970Z,4.40
2017-09-03T16:24:37.978Z,5.43
2017-09-03T16:27:05.882Z,4.40
2017-09-03T16:29:34.390Z,4.67
2017-09-03T16:32:02.270Z,4.43
2017-09-03T16:34:30.049Z,4.53
2017-09-03T16:36:57.800Z,4.83
2017-09-03T16:39:25.566Z,5.27
2017-09-03T16:41:53.437Z,5.43
2017-09-03T16:44:22.287Z,5.53
2017-09-03T16:46:50.117Z,5.40
2017-09-03T16:49:17.929Z,5.30
2017-09-03T16:51:45.781Z,4.80
2017-09-03T16:54:13.610Z,5.53
2017-09-03T16:56:41.509Z,5.30
2017-09-03T16:59:09.417Z,5.23
2017-09-03T17:01:37.389Z,4.80
2017-09-03T17:04:05.224Z,4.77
2017-09-03T17:06:33.025Z,5.10
2017-09-03T17:09:00.898Z,5.70
2017-09-03T17:11:28.732Z,4.93
2017-09-03T17:13:56.649Z,5.77
2017-09-03T17:16:24.556Z,5.00
2017-09-03T17:18:52.407Z,4.97
2017-09-03T17:21:20.376Z,4.87
2017-09-03T17:23:48.242Z,4.50
2017-09-03T17:26:16.131Z,4.93
2017-09-03T17:28:44.018Z,5.50
2017-09-03T17:31:26.600Z,5.33
2017-09-03T17:33:54.590Z,5.27
2017-09-03T17:36:22.387Z,4.85
2017-09-03T17:38:55.584Z,5.70
2017-09-03T17:41:33.301Z,5.70
2017-09-03T17:44:11.066Z,5.23
2017-09-03T17:46:42.570Z,5.27
2017-09-03T17:49:10.443Z,6.27
2017-09-03T17:51:39.218Z,6.40
2017-09-03T17:54:07.578Z,6.17
2017-09-03T17:56:36.251Z,6.30
2017-09-03T17:59:04.049Z,6.43
2017-09-03T18:01:31.976Z,7.10
2017-09-03T18:03:59.831Z,6.03
2017-09-03T18:06:27.736Z,5.87
2017-09-03T18:08:55.570Z,7.00
2017-09-03T18:11:23.398Z,6.37
2017-09-03T18:13:51.247Z,6.30
2017-09-03T18:16:19.109Z,6.00
2017-09-03T18:18:46.984Z,5.80
2017-09-03T18:21:15.581Z,5.90
2017-09-03T18:23:43.421Z,7.07
2017-09-03T18:26:11.261Z,6.40
2017-09-03T18:28:39.989Z,6.40
2017-09-03T18:31:09.673Z,6.10
2017-09-03T18:33:37.509Z,5.60
2017-09-03T18:39:28.374Z,7.30
2017-09-03T18:41:56.303Z,5.97
2017-09-03T18:44:26.153Z,5.93
2017-09-03T18:46:54.052Z,4.80
2017-09-03T18:49:22.153Z,5.33
2017-09-03T18:51:59.866Z,5.47
2017-09-03T18:54:29.217Z,5.53
2017-09-03T18:56:57.030Z,6.73
2017-09-03T19:10:47.250Z,6.10
2017-09-03T19:13:15.137Z,5.23
2017-09-03T19:15:42.945Z,6.47
2017-09-03T19:18:10.764Z,5.40
2017-09-03T19:20:38.610Z,6.20
2017-09-03T19:23:06.520Z,6.70
2017-09-03T19:25:34.374Z,7.63
2017-09-03T19:28:02.846Z,6.07
2017-09-03T19:30:30.762Z,5.40
2017-09-03T19:32:58.596Z,6.30
2017-09-03T19:35:26.401Z,6.63
2017-09-03T19:37:56.838Z,5.50
2017-09-03T19:40:24.645Z,6.40
2017-09-03T19:42:52.505Z,5.80
2017-09-03T19:45:20.329Z,5.43
2017-09-03T19:47:48.072Z,5.67
2017-09-03T19:50:15.835Z,6.63
2017-09-03T19:52:43.569Z,6.03
2017-09-03T19:55:11.318Z,7.57
2017-09-03T19:57:39.150Z,7.73
2017-09-03T20:00:06.914Z,8.33
2017-09-03T20:02:34.676Z,7.73
2017-09-03T20:05:02.450Z,8.57
2017-09-03T20:07:30.249Z,8.43
2017-09-03T20:09:58.038Z,7.63
2017-09-03T20:12:25.777Z,7.27
2017-09-03T20:14:53.627Z,7.40
2017-09-03T20:17:21.381Z,6.97
2017-09-03T20:19:49.253Z,7.80
2017-09-03T20:22:16.988Z,8.00
2017-09-03T20:24:44.805Z,9.30
2017-09-03T20:27:12.584Z,8.73
2017-09-03T20:29:41.303Z,7.90
2017-09-03T20:32:09.099Z,8.80
2017-09-03T20:34:37.342Z,10.30
2017-09-03T20:37:05.188Z,14.70
2017-09-03T20:39:33.110Z,13.90
2017-09-03T20:42:00.996Z,16.33
2017-09-03T20:44:28.819Z,15.43
2017-09-03T20:46:56.619Z,14.13
2017-09-03T20:49:24.461Z,13.00
2017-09-03T20:51:52.324Z,13.30
2017-09-03T20:54:20.119Z,13.43
2017-09-03T20:56:47.895Z,12.67
2017-09-03T20:59:15.669Z,13.13
2017-09-03T21:01:43.425Z,11.20
2017-09-03T21:04:12.407Z,11.40
2017-09-03T21:06:40.262Z,10.97
2017-09-03T21:09:09.976Z,10.17
2017-09-03T21:11:37.778Z,9.90
2017-09-03T21:14:05.549Z,8.80
2017-09-03T21:16:33.859Z,8.63
2017-09-03T21:19:01.718Z,9.10
2017-09-03T21:21:29.534Z,9.17
2017-09-03T21:23:57.367Z,7.60
2017-09-03T21:26:25.186Z,8.03
2017-09-03T21:28:52.960Z,8.57
2017-09-03T21:31:20.757Z,8.57
2017-09-03T21:33:48.757Z,8.90
2017-09-03T21:36:16.601Z,8.67
2017-09-03T21:38:44.449Z,9.10
2017-09-03T21:41:12.566Z,7.47
2017-09-03T21:43:40.343Z,9.03
2017-09-03T21:46:08.127Z,8.17
2017-09-03T21:48:36.682Z,7.67
2017-09-03T21:51:05.699Z,8.10
2017-09-03T21:53:33.493Z,8.70
2017-09-03T21:56:01.397Z,7.70
2017-09-03T21:58:29.183Z,8.43
2017-09-03T22:00:56.949Z,8.10
2017-09-03T22:03:25.356Z,7.73
2017-09-03T22:05:53.126Z,8.87
2017-09-03T22:08:20.959Z,7.27
2017-09-03T22:10:48.721Z,7.90
2017-09-03T22:13:16.566Z,8.40
2017-09-03T22:15:44.372Z,7.53
2017-09-03T22:18:12.163Z,7.47
2017-09-03T22:20:39.947Z,7.97
2017-09-03T22:23:07.930Z,7.80
2017-09-03T22:25:35.686Z,7.43
2017-09-03T22:28:03.460Z,7.33
2017-09-03T22:30:31.230Z,7.23
2017-09-03T22:32:59.085Z,7.07
2017-09-03T22:35:26.924Z,6.50
2017-09-03T22:37:54.698Z,6.20
2017-09-03T22:40:22.619Z,7.00
2017-09-03T22:42:50.397Z,8.20
2017-09-03T22:45:18.182Z,8.10
2017-09-03T22:47:45.934Z,7.37
2017-09-03T22:50:13.724Z,6.60
2017-09-03T22:52:41.555Z,7.30
2017-09-03T22:55:09.374Z,6.80
2017-09-03T22:57:37.145Z,6.90
2017-09-03T23:00:04.955Z,6.40
2017-09-03T23:02:32.720Z,6.60
2017-09-03T23:05:00.528Z,6.70
2017-09-03T23:07:28.306Z,6.07
2017-09-03T23:09:56.911Z,6.00
2017-09-03T23:12:25.525Z,5.63
2017-09-03T23:14:53.363Z,5.80
2017-09-03T23:17:21.127Z,6.47
2017-09-03T23:19:49.650Z,5.73
2017-09-03T23:22:17.535Z,6.03
2017-09-03T23:24:45.297Z,6.10
2017-09-03T23:27:13.057Z,6.30
2017-09-03T23:29:40.848Z,6.33
2017-09-03T23:32:08.616Z,6.27
2017-09-03T23:34:36.448Z,4.63
2017-09-03T23:37:04.264Z,7.10
2017-09-03T23:39:32.050Z,6.50
2017-09-03T23:41:59.848Z,6.27
2017-09-03T23:44:27.693Z,6.30
2017-09-03T23:46:55.465Z,6.10
2017-09-03T23:49:23.262Z,6.93
2017-09-03T23:51:51.124Z,5.97
2017-09-03T23:54:18.879Z,6.53
2017-09-03T23:56:46.734Z,6.10
2017-09-03T23:59:14.522Z,6.50
